Time;durP1;ratioP1;P1;durP2;ratioP2;P2;SDS_P1;SDS_P2;PMS_P1;PMS_P2;Temp;Humidity;BMP_temperature;BMP_pressure;BME280_temperature;BME280_humidity;BME280_pressure;Samples;Min_cycle;Max_cycle;Signal;HPM_P1;HPM_P2
2023/09/29 00:01:57;;;;;;;1999.90;999.90;;;21.60;99.90;;;;;;5027166;28;20078;-77
2023/09/29 00:04:23;;;;;;;1999.90;999.90;;;21.50;99.90;;;;;;5022313;28;20037;-73
2023/09/29 00:06:48;;;;;;;1999.90;999.90;;;21.60;99.90;;;;;;5016770;28;20362;-77
2023/09/29 00:09:16;;;;;;;1999.90;999.90;;;21.50;99.90;;;;;;5006681;28;20503;-77
2023/09/29 00:11:41;;;;;;;1999.90;999.90;;;21.60;99.90;;;;;;5014599;28;20787;-77
2023/09/29 00:14:07;;;;;;;1999.90;999.90;;;21.60;99.90;;;;;;5027261;28;20040;-77
2023/09/29 00:16:33;;;;;;;1999.90;999.90;;;21.60;99.90;;;;;;5026959;28;20046;-76
2023/09/29 00:18:58;;;;;;;1999.90;999.90;;;21.50;99.90;;;;;;5026821;28;20029;-75
2023/09/29 00:21:24;;;;;;;1999.90;999.90;;;21.50;99.90;;;;;;5026891;28;20072;-77
2023/09/29 00:23:50;;;;;;;1999.90;999.90;;;21.50;99.90;;;;;;5026821;28;20543;-77
2023/09/29 00:26:15;;;;;;;1999.90;999.90;;;21.50;99.90;;;;;;5026746;28;20082;-77
2023/09/29 00:28:41;;;;;;;1999.90;999.90;;;21.50;99.90;;;;;;5026624;28;20056;-74
2023/09/29 00:31:08;;;;;;;1999.90;999.90;;;21.40;99.90;;;;;;5026860;28;20405;-73
2023/09/29 00:33:35;;;;;;;1999.90;999.90;;;21.30;99.90;;;;;;5026939;28;20774;-77
2023/09/29 00:36:01;;;;;;;1999.90;999.90;;;21.40;99.90;;;;;;5026728;28;20029;-77
2023/09/29 00:38:26;;;;;;;1999.90;999.90;;;21.30;99.90;;;;;;5026133;28;20040;-78
2023/09/29 00:40:52;;;;;;;1999.90;999.90;;;21.30;99.90;;;;;;5026531;28;20418;-75
2023/09/29 00:43:18;;;;;;;1999.90;999.90;;;21.30;99.90;;;;;;5026400;28;20036;-74
2023/09/29 00:45:47;;;;;;;1999.90;999.90;;;21.40;99.90;;;;;;5025863;28;20130;-77
2023/09/29 00:48:14;;;;;;;1999.90;999.90;;;21.40;99.90;;;;;;5026138;28;20017;-77
2023/09/29 00:50:41;;;;;;;1999.90;999.90;;;21.30;99.90;;;;;;5025060;28;20388;-77
2023/09/29 00:53:11;;;;;;;1999.90;999.90;;;21.20;99.90;;;;;;5026207;28;20060;-77
2023/09/29 00:55:40;;;;;;;1999.90;999.90;;;21.10;99.90;;;;;;5026413;28;20039;-78
2023/09/29 00:58:06;;;;;;;1999.90;999.90;;;21.00;99.90;;;;;;5025798;28;20023;-73
2023/09/29 01:00:35;;;;;;;1999.90;999.90;;;21.00;99.90;;;;;;5014577;28;20475;-77
2023/09/29 01:03:12;;;;;;;1999.90;999.90;;;20.90;99.90;;;;;;5005657;28;20563;-78
2023/09/29 01:05:43;;;;;;;1999.90;999.90;;;20.80;99.90;;;;;;5009842;28;20030;-77
2023/09/29 01:08:12;;;;;;;1999.90;999.90;;;20.80;99.90;;;;;;5018467;28;20482;-74
2023/09/29 01:10:39;;;;;;;1999.90;999.90;;;20.70;99.90;;;;;;5025858;28;20021;-77
2023/09/29 01:13:05;;;;;;;1999.90;999.90;;;20.60;99.90;;;;;;5023865;28;20079;-77
2023/09/29 01:15:34;;;;;;;1999.90;999.90;;;20.60;99.90;;;;;;5023670;28;20494;-77
2023/09/29 01:18:01;;;;;;;1999.90;999.90;;;20.60;99.90;;;;;;5025930;28;20407;-77
2023/09/29 01:20:28;;;;;;;1999.90;999.90;;;20.50;99.90;;;;;;5025925;28;20032;-73
2023/09/29 01:22:55;;;;;;;1999.90;999.90;;;20.50;99.90;;;;;;5025192;28;20025;-74
2023/09/29 01:25:21;;;;;;;1999.90;999.90;;;20.50;99.90;;;;;;5026114;28;20049;-77
2023/09/29 01:27:48;;;;;;;1999.90;999.90;;;20.50;99.90;;;;;;5025946;28;20032;-77
2023/09/29 01:30:16;;;;;;;1999.90;999.90;;;20.40;99.90;;;;;;5026329;28;20021;-77
2023/09/29 01:32:42;;;;;;;1999.90;999.90;;;20.40;99.90;;;;;;5026116;28;20025;-76
2023/09/29 01:35:10;;;;;;;1999.90;999.90;;;20.40;99.90;;;;;;5025600;28;20555;-76
2023/09/29 01:37:38;;;;;;;1999.90;999.90;;;20.40;99.90;;;;;;5025609;28;20065;-77
2023/09/29 01:40:06;;;;;;;1999.90;999.90;;;20.40;99.90;;;;;;5026201;28;20137;-74
2023/09/29 01:42:32;;;;;;;1999.90;999.90;;;20.30;99.90;;;;;;5025012;28;20315;-77
2023/09/29 01:44:57;;;;;;;1999.90;999.90;;;20.30;99.90;;;;;;5025766;28;20083;-77
2023/09/29 01:47:23;;;;;;;1999.90;999.90;;;20.30;99.90;;;;;;5025716;28;20025;-73
2023/09/29 01:49:49;;;;;;;1999.90;999.90;;;20.30;99.90;;;;;;5025658;28;20021;-73
2023/09/29 01:52:15;;;;;;;1999.90;999.90;;;20.20;99.90;;;;;;5023631;28;20033;-77
2023/09/29 01:54:40;;;;;;;1999.90;999.90;;;20.20;99.90;;;;;;5025302;28;20048;-77
2023/09/29 01:57:06;;;;;;;1999.90;999.90;;;20.20;99.90;;;;;;5025509;28;20032;-76
2023/09/29 01:59:32;;;;;;;1999.90;999.90;;;20.20;99.90;;;;;;5025572;28;20443;-74
2023/09/29 02:01:57;;;;;;;1999.90;999.90;;;20.20;99.90;;;;;;5025822;28;20033;-73
2023/09/29 02:04:23;;;;;;;1999.90;999.90;;;20.10;99.90;;;;;;5023537;28;20358;-77
2023/09/29 02:06:50;;;;;;;1999.90;999.90;;;20.10;99.90;;;;;;5017403;28;20045;-73
2023/09/29 02:09:16;;;;;;;1999.90;999.90;;;20.10;99.90;;;;;;5005299;28;20052;-76
2023/09/29 02:11:45;;;;;;;1999.90;999.90;;;20.00;99.90;;;;;;5015180;28;20419;-77
2023/09/29 02:14:11;;;;;;;1999.90;999.90;;;20.00;99.90;;;;;;5025763;28;20868;-74
2023/09/29 02:16:36;;;;;;;1999.90;999.90;;;20.00;99.90;;;;;;5025615;28;20028;-77
2023/09/29 02:19:03;;;;;;;1999.90;999.90;;;20.00;99.90;;;;;;5024146;28;20517;-77
2023/09/29 02:21:34;;;;;;;1999.90;999.90;;;19.90;99.90;;;;;;5025670;28;20585;-73
2023/09/29 02:24:00;;;;;;;1999.90;999.90;;;19.90;99.90;;;;;;5028560;28;20460;-77
2023/09/29 02:26:28;;;;;;;1999.90;999.90;;;19.90;99.90;;;;;;5028901;28;20061;-73
2023/09/29 02:28:55;;;;;;;1999.90;999.90;;;19.90;99.90;;;;;;5028987;28;20442;-73
2023/09/29 02:31:21;;;;;;;1999.90;999.90;;;19.90;99.90;;;;;;5028536;28;20150;-77
2023/09/29 02:33:47;;;;;;;1999.90;999.90;;;19.80;99.90;;;;;;5028780;28;20585;-76
2023/09/29 02:36:13;;;;;;;1999.90;999.90;;;19.80;99.90;;;;;;5028613;28;20037;-76
2023/09/29 02:38:38;;;;;;;1999.90;999.90;;;19.80;99.90;;;;;;5028309;28;20029;-74
2023/09/29 02:41:07;;;;;;;1999.90;999.90;;;19.70;99.90;;;;;;5028702;28;20101;-73
2023/09/29 02:43:32;;;;;;;1999.90;999.90;;;19.70;99.90;;;;;;5028913;28;20021;-77
2023/09/29 02:45:58;;;;;;;1999.90;999.90;;;19.70;99.90;;;;;;5028715;28;20107;-77
2023/09/29 02:48:23;;;;;;;1999.90;999.90;;;19.60;99.90;;;;;;5027919;28;20021;-77
2023/09/29 02:50:49;;;;;;;1999.90;999.90;;;19.60;99.90;;;;;;5028564;28;20604;-77
2023/09/29 02:53:15;;;;;;;1999.90;999.90;;;19.60;99.90;;;;;;5027950;28;20083;-73
2023/09/29 02:55:41;;;;;;;1999.90;999.90;;;19.50;99.90;;;;;;5028518;28;20025;-77
2023/09/29 02:58:07;;;;;;;1999.90;999.90;;;19.50;99.90;;;;;;5027827;28;20029;-77
2023/09/29 03:00:33;;;;;;;1999.90;999.90;;;19.50;99.90;;;;;;5018190;28;20069;-76
2023/09/29 03:02:59;;;;;;;1999.90;999.90;;;19.40;99.90;;;;;;5008478;28;20076;-74
2023/09/29 03:05:25;;;;;;;1999.90;999.90;;;19.40;99.90;;;;;;5014670;28;20033;-74
2023/09/29 03:07:51;;;;;;;1999.90;999.90;;;19.40;99.90;;;;;;5019155;28;20128;-74
2023/09/29 03:10:17;;;;;;;1999.90;999.90;;;19.40;99.90;;;;;;5028488;28;20021;-77
2023/09/29 03:12:44;;;;;;;1999.90;999.90;;;19.30;99.90;;;;;;5027967;28;20059;-77
2023/09/29 03:15:13;;;;;;;1999.90;999.90;;;19.30;99.90;;;;;;5028238;28;20043;-77
2023/09/29 03:17:39;;;;;;;1999.90;999.90;;;19.40;99.90;;;;;;5027534;28;20029;-74
2023/09/29 03:20:09;;;;;;;1999.90;999.90;;;19.30;99.90;;;;;;5028000;28;20083;-73
2023/09/29 03:22:38;;;;;;;1999.90;999.90;;;19.30;99.90;;;;;;5027896;28;20025;-76
2023/09/29 03:25:10;;;;;;;1999.90;999.90;;;19.30;99.90;;;;;;5025394;28;20449;-77
2023/09/29 03:27:36;;;;;;;1999.90;999.90;;;19.30;99.90;;;;;;5028049;28;20025;-74
2023/09/29 03:30:07;;;;;;;1999.90;999.90;;;19.20;99.90;;;;;;5028253;28;20457;-77
2023/09/29 03:32:33;;;;;;;1999.90;999.90;;;19.20;99.90;;;;;;5027802;28;20124;-74
2023/09/29 03:34:59;;;;;;;1999.90;999.90;;;19.20;99.90;;;;;;5027729;28;20557;-77
2023/09/29 03:37:27;;;;;;;1999.90;999.90;;;19.20;99.90;;;;;;5026966;28;20044;-77
2023/09/29 03:39:53;;;;;;;1999.90;999.90;;;19.20;99.90;;;;;;5028045;28;20355;-74
2023/09/29 03:42:22;;;;;;;1999.90;999.90;;;19.20;99.90;;;;;;5027590;28;20037;-77
2023/09/29 03:44:47;;;;;;;1999.90;999.90;;;19.20;99.90;;;;;;5027406;28;20032;-74
2023/09/29 03:47:13;;;;;;;1999.90;999.90;;;19.10;99.90;;;;;;5026647;28;20438;-76
2023/09/29 03:49:39;;;;;;;1999.90;999.90;;;19.10;99.90;;;;;;5027451;28;20037;-77
2023/09/29 03:52:08;;;;;;;1999.90;999.90;;;19.20;99.90;;;;;;5027481;28;20040;-77
2023/09/29 03:54:34;;;;;;;1999.90;999.90;;;19.10;99.90;;;;;;5026869;28;20113;-77
2023/09/29 03:57:03;;;;;;;1999.90;999.90;;;19.10;99.90;;;;;;5027212;28;20517;-73
2023/09/29 03:59:29;;;;;;;1999.90;999.90;;;19.10;99.90;;;;;;5027118;28;20029;-76
2023/09/29 04:01:55;;;;;;;1999.90;999.90;;;19.10;99.90;;;;;;5027513;28;20649;-77
2023/09/29 04:04:21;;;;;;;1999.90;999.90;;;19.20;99.90;;;;;;5023696;28;20119;-76
2023/09/29 04:06:46;;;;;;;1999.90;999.90;;;19.20;99.90;;;;;;5018530;28;20450;-77
2023/09/29 04:09:12;;;;;;;1999.90;999.90;;;19.20;99.90;;;;;;5007200;28;20111;-74
2023/09/29 04:11:40;;;;;;;1999.90;999.90;;;19.20;99.90;;;;;;5015940;28;20025;-74
2023/09/29 04:14:05;;;;;;;1999.90;999.90;;;19.20;99.90;;;;;;5024805;28;20067;-73
2023/09/29 04:16:31;;;;;;;1999.90;999.90;;;19.30;99.90;;;;;;5027056;28;20539;-77
2023/09/29 04:18:57;;;;;;;1999.90;999.90;;;19.20;99.90;;;;;;5027134;28;20340;-76
2023/09/29 04:21:22;;;;;;;1999.90;999.90;;;19.30;99.90;;;;;;5026837;28;20032;-77
2023/09/29 04:23:48;;;;;;;1999.90;999.90;;;19.20;99.90;;;;;;5026855;28;20535;-74
2023/09/29 04:26:22;;;;;;;1999.90;999.90;;;19.30;99.90;;;;;;5026873;28;20866;-77
2023/09/29 04:28:48;;;;;;;1999.90;999.90;;;19.30;99.90;;;;;;5026791;28;20830;-77
2023/09/29 04:31:14;;;;;;;1999.90;999.90;;;19.20;99.90;;;;;;5027134;28;20110;-77
2023/09/29 04:33:40;;;;;;;1999.90;999.90;;;19.30;99.90;;;;;;5026823;28;20120;-77
2023/09/29 04:36:06;;;;;;;1999.90;999.90;;;19.30;99.90;;;;;;5018286;28;20067;-73
2023/09/29 04:38:33;;;;;;;1999.90;999.90;;;19.20;99.90;;;;;;5017410;28;20462;-74
2023/09/29 04:40:58;;;;;;;1999.90;999.90;;;19.20;99.90;;;;;;5026794;28;20024;-77
2023/09/29 04:43:24;;;;;;;1999.90;999.90;;;19.20;99.90;;;;;;5025846;28;20032;-76
2023/09/29 04:45:50;;;;;;;1999.90;999.90;;;19.20;99.90;;;;;;5026124;28;20021;-76
2023/09/29 04:48:16;;;;;;;1999.90;999.90;;;19.10;99.90;;;;;;5023954;28;20060;-76
2023/09/29 04:50:42;;;;;;;1999.90;999.90;;;19.10;99.90;;;;;;5026601;28;20059;-74
2023/09/29 04:53:08;;;;;;;1999.90;999.90;;;19.10;99.90;;;;;;5026265;28;20115;-76
2023/09/29 04:55:33;;;;;;;1999.90;999.90;;;19.10;99.90;;;;;;5026347;28;20397;-77
2023/09/29 04:57:59;;;;;;;1999.90;999.90;;;19.10;99.90;;;;;;5025527;28;20477;-77
2023/09/29 05:00:26;;;;;;;1999.90;999.90;;;19.10;99.90;;;;;;5021121;28;20033;-77
2023/09/29 05:02:52;;;;;;;1999.90;999.90;;;19.10;99.90;;;;;;5026046;28;20036;-77
2023/09/29 05:05:18;;;;;;;1999.90;999.90;;;19.00;99.90;;;;;;5022169;28;20068;-77
2023/09/29 05:07:44;;;;;;;1999.90;999.90;;;19.00;99.90;;;;;;5016407;28;20128;-77
2023/09/29 05:10:13;;;;;;;1999.90;999.90;;;19.00;99.90;;;;;;5026081;28;20032;-77
2023/09/29 05:12:43;;;;;;;1999.90;999.90;;;19.00;99.90;;;;;;5025680;28;20512;-76
2023/09/29 05:15:09;;;;;;;1999.90;999.90;;;18.90;99.90;;;;;;5017752;28;20029;-74
2023/09/29 05:17:35;;;;;;;1999.90;999.90;;;18.90;99.90;;;;;;5006809;28;20047;-74
2023/09/29 05:20:01;;;;;;;1999.90;999.90;;;18.90;99.90;;;;;;5006095;28;20025;-77
2023/09/29 05:22:27;;;;;;;1999.90;999.90;;;18.90;99.90;;;;;;5006050;28;20831;-77
2023/09/29 05:24:53;;;;;;;1999.90;999.90;;;18.80;99.90;;;;;;5005933;28;20678;-77
2023/09/29 05:27:19;;;;;;;1999.90;999.90;;;18.80;99.90;;;;;;5005896;28;20134;-76
2023/09/29 05:29:45;;;;;;;1999.90;999.90;;;18.80;99.90;;;;;;5006166;28;20717;-74
2023/09/29 05:32:11;;;;;;;1999.90;999.90;;;18.80;99.90;;;;;;5006053;28;20120;-77
2023/09/29 05:34:36;;;;;;;1999.90;999.90;;;18.70;99.90;;;;;;5004907;28;20856;-77
2023/09/29 05:37:02;;;;;;;1999.90;999.90;;;18.70;99.90;;;;;;5005335;28;20037;-77
2023/09/29 05:39:28;;;;;;;1999.90;999.90;;;18.70;99.90;;;;;;5021302;28;20153;-77
2023/09/29 05:41:53;;;;;;;1999.90;999.90;;;18.80;99.90;;;;;;5026022;28;20163;-77
2023/09/29 05:44:19;;;;;;;1999.90;999.90;;;18.80;99.90;;;;;;5019532;28;20047;-77
2023/09/29 05:46:44;;;;;;;1999.90;999.90;;;18.80;99.90;;;;;;5017131;28;20025;-77
2023/09/29 05:49:10;;;;;;;1999.90;999.90;;;18.90;99.90;;;;;;5024282;28;20068;-77
2023/09/29 05:51:36;;;;;;;1999.90;999.90;;;18.90;99.90;;;;;;5025041;28;20029;-77
2023/09/29 05:54:03;;;;;;;1999.90;999.90;;;18.90;99.90;;;;;;5024812;28;20464;-74
2023/09/29 05:56:31;;;;;;;1999.90;999.90;;;18.90;99.90;;;;;;5026408;28;20066;-77
2023/09/29 05:58:57;;;;;;;1999.90;999.90;;;18.90;99.90;;;;;;5030020;28;20029;-77
2023/09/29 06:01:25;;;;;;;1999.90;999.90;;;18.90;99.90;;;;;;5029245;28;20736;-74
2023/09/29 06:03:51;;;;;;;1999.90;999.90;;;18.90;99.90;;;;;;5027243;28;20712;-76
2023/09/29 06:06:17;;;;;;;1999.90;999.90;;;19.00;99.90;;;;;;5025055;28;20086;-74
2023/09/29 06:08:44;;;;;;;1999.90;999.90;;;19.00;99.90;;;;;;5025686;28;20797;-74
2023/09/29 06:11:10;;;;;;;1999.90;999.90;;;19.00;99.90;;;;;;5029749;28;20025;-77
2023/09/29 06:13:37;;;;;;;1999.90;999.90;;;19.00;99.90;;;;;;5029674;28;20107;-77
2023/09/29 06:16:03;;;;;;;1999.90;999.90;;;19.00;99.90;;;;;;5026121;28;20021;-77
2023/09/29 06:18:29;;;;;;;1999.90;999.90;;;19.00;99.90;;;;;;5028645;28;20140;-77
2023/09/29 06:20:55;;;;;;;1999.90;999.90;;;19.00;99.90;;;;;;5026204;28;20029;-75
2023/09/29 06:23:20;;;;;;;1999.90;999.90;;;19.00;99.90;;;;;;5027425;28;20032;-74
2023/09/29 06:25:46;;;;;;;1999.90;999.90;;;19.10;99.90;;;;;;5029871;28;20055;-77
2023/09/29 06:28:12;;;;;;;1999.90;999.90;;;19.10;99.90;;;;;;5026735;28;20029;-74
2023/09/29 06:30:38;;;;;;;1999.90;999.90;;;19.20;99.90;;;;;;5029673;28;20125;-74
2023/09/29 06:33:04;;;;;;;1999.90;999.90;;;19.30;99.90;;;;;;5029027;28;20033;-74
2023/09/29 06:35:30;;;;;;;1999.90;999.90;;;19.30;99.90;;;;;;5029156;28;20041;-74
2023/09/29 06:37:55;;;;;;;1999.90;999.90;;;19.50;99.90;;;;;;5025954;28;21569;-77
2023/09/29 06:40:23;;;;;;;1999.90;999.90;;;19.60;99.90;;;;;;5024506;28;20075;-76
2023/09/29 06:42:48;;;;;;;1999.90;999.90;;;19.70;99.90;;;;;;5023568;28;20037;-74
2023/09/29 06:45:14;;;;;;;1999.90;999.90;;;19.80;99.90;;;;;;5023308;28;20029;-73
2023/09/29 06:47:40;;;;;;;1999.90;999.90;;;19.70;99.90;;;;;;5027906;28;20044;-74
2023/09/29 06:50:10;;;;;;;1999.90;999.90;;;19.70;99.90;;;;;;5026536;28;20049;-77
2023/09/29 06:52:37;;;;;;;1999.90;999.90;;;19.70;99.90;;;;;;5025491;28;20849;-76
2023/09/29 06:55:03;;;;;;;1999.90;999.90;;;19.70;99.90;;;;;;5019825;28;20032;-77
2023/09/29 06:57:28;;;;;;;1999.90;999.90;;;19.70;99.90;;;;;;5019976;28;20033;-77
2023/09/29 06:59:54;;;;;;;1999.90;999.90;;;19.70;99.90;;;;;;5023433;28;20029;-74
2023/09/29 07:02:19;;;;;;;1999.90;999.90;;;19.70;99.90;;;;;;5022773;28;20029;-74
2023/09/29 07:04:46;;;;;;;1999.90;999.90;;;19.70;99.90;;;;;;5025459;28;20045;-77
2023/09/29 07:07:12;;;;;;;1999.90;999.90;;;19.80;99.90;;;;;;5025038;28;20813;-77
2023/09/29 07:09:38;;;;;;;1999.90;999.90;;;19.90;99.90;;;;;;5025800;28;20032;-77
2023/09/29 07:12:05;;;;;;;1999.90;999.90;;;20.10;99.90;;;;;;5026482;28;20029;-76
2023/09/29 07:14:30;;;;;;;1999.90;999.90;;;20.20;99.90;;;;;;5026143;28;20040;-77
2023/09/29 07:16:56;;;;;;;1999.90;999.90;;;20.30;99.90;;;;;;5026007;28;20851;-76
2023/09/29 07:19:21;;;;;;;1999.90;999.90;;;20.50;99.90;;;;;;5025721;28;20028;-77
2023/09/29 07:21:47;;;;;;;1999.90;999.90;;;20.70;99.90;;;;;;5026113;28;20036;-74
2023/09/29 07:24:13;;;;;;;1999.90;999.90;;;20.70;99.90;;;;;;5026987;28;20033;-77
2023/09/29 07:26:38;;;;;;;1999.90;999.90;;;20.70;99.90;;;;;;5026982;28;20033;-75
2023/09/29 07:29:04;;;;;;;1999.90;999.90;;;20.60;99.90;;;;;;5024579;28;20021;-75
2023/09/29 07:31:38;;;;;;;1999.90;999.90;;;20.60;99.90;;;;;;5026204;28;20040;-75
2023/09/29 07:34:04;;;;;;;1999.90;999.90;;;20.50;99.90;;;;;;5025790;28;20060;-77
2023/09/29 07:36:31;;;;;;;1999.90;999.90;;;20.50;99.90;;;;;;5025595;28;20068;-75
2023/09/29 07:38:57;;;;;;;1999.90;999.90;;;20.50;99.90;;;;;;5023677;28;20136;-75
2023/09/29 07:41:23;;;;;;;1999.90;999.90;;;20.60;99.90;;;;;;5027134;28;20033;-77
2023/09/29 07:43:49;;;;;;;1999.90;999.90;;;20.60;99.90;;;;;;5019996;28;20166;-77
2023/09/29 07:46:15;;;;;;;1999.90;999.90;;;20.60;99.90;;;;;;5025389;28;20021;-78
2023/09/29 07:48:41;;;;;;;1999.90;999.90;;;20.70;99.90;;;;;;5025416;28;20031;-77
2023/09/29 07:51:06;;;;;;;1999.90;999.90;;;20.70;99.90;;;;;;5022685;28;20491;-78
2023/09/29 07:53:32;;;;;;;1999.90;999.90;;;20.80;99.90;;;;;;5025751;28;20574;-75
2023/09/29 07:55:58;;;;;;;1999.90;999.90;;;20.90;99.90;;;;;;5025691;28;20017;-78
2023/09/29 07:58:23;;;;;;;1999.90;999.90;;;20.90;99.90;;;;;;5026315;28;20033;-78
2023/09/29 08:00:49;;;;;;;1999.90;999.90;;;21.20;99.90;;;;;;5022584;28;20040;-77
2023/09/29 08:03:14;;;;;;;1999.90;999.90;;;21.50;99.90;;;;;;5025443;28;20828;-75
2023/09/29 08:05:40;;;;;;;1999.90;999.90;;;21.50;99.90;;;;;;5021370;28;20049;-75
2023/09/29 08:08:06;;;;;;;1999.90;999.90;;;21.70;99.90;;;;;;5025677;28;20128;-75
2023/09/29 08:10:32;;;;;;;1999.90;999.90;;;22.30;99.90;;;;;;5023443;28;20199;-78
2023/09/29 08:12:57;;;;;;;1999.90;999.90;;;23.20;99.90;;;;;;5025011;28;20147;-79
2023/09/29 08:15:24;;;;;;;1999.90;999.90;;;23.30;99.90;;;;;;5022319;28;20039;-75
2023/09/29 08:17:50;;;;;;;1999.90;999.90;;;23.20;99.90;;;;;;5024777;28;20029;-74
2023/09/29 08:20:17;;;;;;;1999.90;999.90;;;22.80;99.90;;;;;;5023369;28;20027;-75
2023/09/29 08:22:43;;;;;;;1999.90;999.90;;;22.50;99.90;;;;;;5024483;28;20037;-78
2023/09/29 08:25:09;;;;;;;1999.90;999.90;;;22.40;99.90;;;;;;5022773;28;20041;-77
2023/09/29 08:27:35;;;;;;;1999.90;999.90;;;22.50;99.90;;;;;;5022855;28;20362;-78
2023/09/29 08:30:02;;;;;;;1999.90;999.90;;;22.40;99.90;;;;;;5024835;28;20017;-75
2023/09/29 08:32:27;;;;;;;1999.90;999.90;;;22.10;99.90;;;;;;5024300;28;20866;-75
2023/09/29 08:34:53;;;;;;;1999.90;999.90;;;22.20;99.90;;;;;;5024163;28;20020;-77
2023/09/29 08:37:18;;;;;;;1999.90;999.90;;;22.60;99.90;;;;;;5024796;28;20033;-78
2023/09/29 08:39:44;;;;;;;1999.90;999.90;;;22.50;99.90;;;;;;5022364;28;20067;-75
2023/09/29 08:42:26;;;;;;;1999.90;999.90;;;22.70;99.90;;;;;;5020407;28;20033;-78
2023/09/29 08:44:54;;;;;;;1999.90;999.90;;;22.90;99.90;;;;;;5019404;28;20139;-78
2023/09/29 08:47:24;;;;;;;1999.90;999.90;;;22.80;99.90;;;;;;5023683;28;20133;-77
2023/09/29 08:49:50;;;;;;;1999.90;999.90;;;22.50;99.90;;;;;;5021404;28;20832;-78
2023/09/29 08:52:19;;;;;;;1999.90;999.90;;;22.20;99.90;;;;;;5024069;28;20029;-78
2023/09/29 08:54:45;;;;;;;1999.90;999.90;;;22.30;99.90;;;;;;5022997;28;20017;-77
2023/09/29 08:57:11;;;;;;;1999.90;999.90;;;24.70;99.90;;;;;;5023036;28;20087;-75
2023/09/29 08:59:39;;;;;;;1999.90;999.90;;;26.30;99.90;;;;;;5021729;28;20101;-78
2023/09/29 09:02:04;;;;;;;1999.90;999.90;;;26.50;99.90;;;;;;5020298;28;20052;-75
2023/09/29 09:04:30;;;;;;;1999.90;999.90;;;25.50;99.90;;;;;;5024983;28;20304;-75
2023/09/29 09:06:56;;;;;;;1999.90;999.90;;;25.70;99.90;;;;;;5014197;28;20459;-78
2023/09/29 09:09:23;;;;;;;1999.90;999.90;;;25.20;99.90;;;;;;5016650;28;20025;-76
2023/09/29 09:11:49;;;;;;;1999.90;999.90;;;24.90;99.90;;;;;;5018019;28;20072;-76
2023/09/29 09:14:15;;;;;;;1999.90;999.90;;;24.60;99.90;;;;;;5019276;28;20413;-73
2023/09/29 09:16:41;;;;;;;1999.90;999.90;;;24.20;99.90;;;;;;5022264;28;20162;-76
2023/09/29 09:19:09;;;;;;;1999.90;999.90;;;24.00;99.90;;;;;;5023218;28;20700;-76
2023/09/29 09:21:35;;;;;;;1999.90;999.90;;;23.90;99.90;;;;;;5034920;28;20211;-74
2023/09/29 09:24:00;;;;;;;1999.90;999.90;;;24.00;99.90;;;;;;5023040;28;20032;-72
2023/09/29 09:26:29;;;;;;;1999.90;999.90;;;24.40;99.90;;;;;;5020660;28;20123;-73
2023/09/29 09:28:54;;;;;;;1999.90;999.90;;;24.30;99.90;;;;;;5025485;28;20021;-76
2023/09/29 09:31:20;;;;;;;1999.90;999.90;;;23.90;99.90;;;;;;5022785;28;20328;-77
2023/09/29 09:33:53;;;;;;;1999.90;999.90;;;23.70;99.90;;;;;;5022930;28;20135;-75
2023/09/29 09:36:19;;;;;;;1999.90;999.90;;;23.70;99.90;;;;;;5027318;28;20390;-76
2023/09/29 09:38:47;;;;;;;1999.90;999.90;;;23.60;99.90;;;;;;5026778;28;20128;-75
2023/09/29 09:41:16;;;;;;;1999.90;999.90;;;23.40;99.90;;;;;;5022207;28;20029;-75
2023/09/29 09:43:43;;;;;;;1999.90;999.90;;;23.10;99.90;;;;;;5026232;28;20525;-77
2023/09/29 09:46:12;;;;;;;1999.90;999.90;;;22.80;99.90;;;;;;5024158;28;20442;-77
2023/09/29 09:48:49;;;;;;;1999.90;999.90;;;22.70;99.90;;;;;;5027343;28;20064;-77
2023/09/29 09:51:31;;;;;;;1999.90;999.90;;;22.50;99.90;;;;;;5026015;28;20346;-77
2023/09/29 09:54:02;;;;;;;1999.90;999.90;;;22.30;99.90;;;;;;5024004;28;20134;-75
2023/09/29 09:56:39;;;;;;;1999.90;999.90;;;22.10;99.90;;;;;;5024718;28;20048;-76
2023/09/29 09:59:07;;;;;;;1999.90;999.90;;;22.20;99.90;;;;;;5019817;28;20040;-76
2023/09/29 10:01:33;;;;;;;1999.90;999.90;;;22.50;99.90;;;;;;5024677;28;20079;-76
2023/09/29 10:04:04;;;;;;;1999.90;999.90;;;22.60;99.90;;;;;;5026691;28;20091;-76
2023/09/29 10:06:31;;;;;;;1999.90;999.90;;;22.90;99.90;;;;;;5022812;28;20515;-77
2023/09/29 10:09:00;;;;;;;1999.90;999.90;;;22.90;99.90;;;;;;5026571;28;20025;-76
2023/09/29 10:11:26;;;;;;;1999.90;999.90;;;22.80;99.90;;;;;;5024749;28;20029;-76
2023/09/29 10:14:04;;;;;;;1999.90;999.90;;;22.60;99.90;;;;;;5022855;28;20138;-77
2023/09/29 10:16:31;;;;;;;1999.90;999.90;;;22.30;99.90;;;;;;5023110;28;20043;-76
2023/09/29 10:19:05;;;;;;;1999.90;999.90;;;22.20;99.90;;;;;;5025424;28;20480;-77
2023/09/29 10:21:41;;;;;;;1999.90;999.90;;;22.20;99.90;;;;;;5025132;28;20574;-76
2023/09/29 10:24:06;;;;;;;1999.90;999.90;;;22.10;99.90;;;;;;5026722;28;20068;-77
2023/09/29 10:26:47;;;;;;;1999.90;999.90;;;22.10;99.90;;;;;;5021948;28;20230;-76
2023/09/29 10:29:20;;;;;;;1999.90;999.90;;;22.20;99.90;;;;;;5026138;28;20021;-76
2023/09/29 10:31:45;;;;;;;1999.90;999.90;;;22.20;99.90;;;;;;5020205;28;20414;-77
2023/09/29 10:34:21;;;;;;;1999.90;999.90;;;22.70;99.90;;;;;;5025686;28;20045;-77
2023/09/29 10:36:54;;;;;;;1999.90;999.90;;;22.70;99.90;;;;;;5028715;28;20037;-77
2023/09/29 10:39:27;;;;;;;1999.90;999.90;;;22.90;99.90;;;;;;5008559;28;20041;-76
2023/09/29 10:42:12;;;;;;;1999.90;999.90;;;23.60;99.90;;;;;;5027745;28;20086;-76
2023/09/29 10:44:52;;;;;;;1999.90;999.90;;;24.30;99.90;;;;;;5026523;28;20093;-77
2023/09/29 10:47:33;;;;;;;1999.90;999.90;;;24.60;99.90;;;;;;5024887;28;20036;-77
2023/09/29 10:50:06;;;;;;;1999.90;999.90;;;24.60;99.90;;;;;;5021695;28;20025;-77
2023/09/29 10:52:32;;;;;;;1999.90;999.90;;;24.30;99.90;;;;;;5026452;28;20044;-77
2023/09/29 10:54:59;;;;;;;1999.90;999.90;;;24.40;99.90;;;;;;5027564;28;20025;-76
2023/09/29 10:57:28;;;;;;;1999.90;999.90;;;24.40;99.90;;;;;;5026744;28;20024;-77
2023/09/29 10:59:59;;;;;;;1999.90;999.90;;;24.20;99.90;;;;;;5023678;28;20036;-77
2023/09/29 11:02:31;;;;;;;1999.90;999.90;;;24.20;99.90;;;;;;5023725;28;20136;-77
2023/09/29 11:04:59;;;;;;;1999.90;999.90;;;24.40;99.90;;;;;;5023782;28;20029;-77
2023/09/29 11:07:29;;;;;;;1999.90;999.90;;;24.20;99.90;;;;;;5023834;28;20047;-76
2023/09/29 11:09:59;;;;;;;1999.90;999.90;;;24.20;99.90;;;;;;5024653;28;20047;-78
2023/09/29 11:12:27;;;;;;;1999.90;999.90;;;23.90;99.90;;;;;;5025978;28;20139;-77
2023/09/29 11:15:06;;;;;;;1999.90;999.90;;;24.00;99.90;;;;;;5024149;28;20024;-77
2023/09/29 11:17:41;;;;;;;1999.90;999.90;;;24.10;99.90;;;;;;5025258;28;20040;-76
2023/09/29 11:20:16;;;;;;;1999.90;999.90;;;23.80;99.90;;;;;;5025574;28;20068;-77
2023/09/29 11:22:42;;;;;;;1999.90;999.90;;;23.90;99.90;;;;;;5026637;28;20140;-77
2023/09/29 11:25:17;;;;;;;1999.90;999.90;;;24.00;99.90;;;;;;5024243;28;20048;-77
2023/09/29 11:27:52;;;;;;;1999.90;999.90;;;24.10;99.90;;;;;;5022935;28;20029;-77
2023/09/29 11:30:20;;;;;;;1999.90;999.90;;;24.00;99.90;;;;;;5025221;28;20028;-77
2023/09/29 11:32:47;;;;;;;1999.90;999.90;;;24.10;99.90;;;;;;5024752;28;20905;-77
2023/09/29 11:35:14;;;;;;;1999.90;999.90;;;24.00;99.90;;;;;;5024354;28;20032;-77
2023/09/29 11:37:42;;;;;;;1999.90;999.90;;;24.00;99.90;;;;;;5021121;28;20122;-77
2023/09/29 11:40:11;;;;;;;1999.90;999.90;;;24.00;99.90;;;;;;5026504;28;20025;-77
2023/09/29 11:42:41;;;;;;;1999.90;999.90;;;24.10;99.90;;;;;;5026933;28;20036;-77
2023/09/29 11:45:10;;;;;;;1999.90;999.90;;;24.30;99.90;;;;;;5025822;28;20702;-77
2023/09/29 11:47:39;;;;;;;1999.90;999.90;;;24.60;99.90;;;;;;5024705;28;20033;-77
2023/09/29 11:50:08;;;;;;;1999.90;999.90;;;24.70;99.90;;;;;;5023793;28;20138;-77
2023/09/29 11:52:34;;;;;;;1999.90;999.90;;;24.70;99.90;;;;;;5021543;28;20044;-77
2023/09/29 11:55:00;;;;;;;1999.90;999.90;;;24.70;99.90;;;;;;5026171;28;20033;-77
2023/09/29 11:57:26;;;;;;;1999.90;999.90;;;24.50;99.90;;;;;;5024105;28;20067;-77
2023/09/29 11:59:52;;;;;;;1999.90;999.90;;;23.90;99.90;;;;;;5022664;28;20140;-77